sensor_id;sensor_type;location;lat;lon;timestamp;P1;durP1;ratioP1;P2;durP2;ratioP2
72603;SDS011;60645;56.968;24.196;2022-07-05T00:00:08;4.53;;;2.03;;
72603;SDS011;60645;56.968;24.196;2022-07-05T00:02:35;2.90;;;1.65;;
72603;SDS011;60645;56.968;24.196;2022-07-05T00:05:02;3.00;;;2.13;;
72603;SDS011;60645;56.968;24.196;2022-07-05T00:07:28;2.58;;;1.88;;
72603;SDS011;60645;56.968;24.196;2022-07-05T00:09:55;4.60;;;2.10;;
72603;SDS011;60645;56.968;24.196;2022-07-05T00:12:26;3.80;;;2.05;;
72603;SDS011;60645;56.968;24.196;2022-07-05T00:14:54;3.03;;;2.15;;
72603;SDS011;60645;56.968;24.196;2022-07-05T00:17:20;5.25;;;2.38;;
72603;SDS011;60645;56.968;24.196;2022-07-05T00:19:47;3.70;;;2.00;;
72603;SDS011;60645;56.968;24.196;2022-07-05T00:22:13;4.05;;;1.98;;
72603;SDS011;60645;56.968;24.196;2022-07-05T00:24:39;4.22;;;2.33;;
72603;SDS011;60645;56.968;24.196;2022-07-05T00:27:06;2.45;;;2.15;;
72603;SDS011;60645;56.968;24.196;2022-07-05T00:29:33;3.63;;;2.53;;
72603;SDS011;60645;56.968;24.196;2022-07-05T00:31:59;4.55;;;2.65;;
72603;SDS011;60645;56.968;24.196;2022-07-05T00:34:26;3.05;;;2.40;;
72603;SDS011;60645;56.968;24.196;2022-07-05T00:36:53;3.17;;;2.35;;
72603;SDS011;60645;56.968;24.196;2022-07-05T00:39:19;5.28;;;2.55;;
72603;SDS011;60645;56.968;24.196;2022-07-05T00:41:46;3.05;;;2.75;;
72603;SDS011;60645;56.968;24.196;2022-07-05T00:44:12;4.15;;;2.35;;
72603;SDS011;60645;56.968;24.196;2022-07-05T00:46:42;2.95;;;2.35;;
72603;SDS011;60645;56.968;24.196;2022-07-05T00:49:09;5.03;;;2.42;;
72603;SDS011;60645;56.968;24.196;2022-07-05T00:51:36;3.17;;;1.77;;
72603;SDS011;60645;56.968;24.196;2022-07-05T00:54:23;2.33;;;1.85;;
72603;SDS011;60645;56.968;24.196;2022-07-05T00:56:49;3.25;;;2.50;;
72603;SDS011;60645;56.968;24.196;2022-07-05T00:59:23;2.67;;;2.05;;
72603;SDS011;60645;56.968;24.196;2022-07-05T01:01:49;3.72;;;2.05;;
72603;SDS011;60645;56.968;24.196;2022-07-05T01:04:16;3.05;;;2.35;;
72603;SDS011;60645;56.968;24.196;2022-07-05T01:06:43;3.85;;;2.00;;
72603;SDS011;60645;56.968;24.196;2022-07-05T01:09:13;2.50;;;2.15;;
72603;SDS011;60645;56.968;24.196;2022-07-05T01:11:40;2.33;;;1.90;;
72603;SDS011;60645;56.968;24.196;2022-07-05T01:14:07;3.97;;;2.13;;
72603;SDS011;60645;56.968;24.196;2022-07-05T01:16:37;3.45;;;2.15;;
72603;SDS011;60645;56.968;24.196;2022-07-05T01:19:07;3.17;;;2.42;;
72603;SDS011;60645;56.968;24.196;2022-07-05T01:21:40;2.50;;;1.80;;
72603;SDS011;60645;56.968;24.196;2022-07-05T01:24:08;3.00;;;2.08;;
72603;SDS011;60645;56.968;24.196;2022-07-05T01:26:35;3.30;;;2.30;;
72603;SDS011;60645;56.968;24.196;2022-07-05T01:29:02;4.40;;;2.65;;
72603;SDS011;60645;56.968;24.196;2022-07-05T01:31:28;4.70;;;2.28;;
72603;SDS011;60645;56.968;24.196;2022-07-05T01:33:55;3.85;;;2.53;;
72603;SDS011;60645;56.968;24.196;2022-07-05T01:36:22;4.65;;;2.75;;
72603;SDS011;60645;56.968;24.196;2022-07-05T01:38:49;4.20;;;3.80;;
72603;SDS011;60645;56.968;24.196;2022-07-05T01:41:15;4.07;;;2.45;;
72603;SDS011;60645;56.968;24.196;2022-07-05T01:43:42;2.55;;;2.33;;
72603;SDS011;60645;56.968;24.196;2022-07-05T01:46:08;3.10;;;2.22;;
72603;SDS011;60645;56.968;24.196;2022-07-05T01:48:35;4.07;;;2.65;;
72603;SDS011;60645;56.968;24.196;2022-07-05T01:51:07;3.42;;;2.78;;
72603;SDS011;60645;56.968;24.196;2022-07-05T01:53:35;3.00;;;2.70;;
72603;SDS011;60645;56.968;24.196;2022-07-05T01:56:02;3.88;;;2.60;;
72603;SDS011;60645;56.968;24.196;2022-07-05T01:58:29;5.32;;;2.95;;
72603;SDS011;60645;56.968;24.196;2022-07-05T02:00:57;3.00;;;2.70;;
72603;SDS011;60645;56.968;24.196;2022-07-05T02:03:23;4.80;;;2.95;;
72603;SDS011;60645;56.968;24.196;2022-07-05T02:06:10;7.53;;;3.63;;
72603;SDS011;60645;56.968;24.196;2022-07-05T02:08:37;4.57;;;2.60;;
72603;SDS011;60645;56.968;24.196;2022-07-05T02:11:03;4.00;;;3.13;;
72603;SDS011;60645;56.968;24.196;2022-07-05T02:13:30;3.67;;;2.88;;
72603;SDS011;60645;56.968;24.196;2022-07-05T02:15:56;5.32;;;3.30;;
72603;SDS011;60645;56.968;24.196;2022-07-05T02:18:23;4.70;;;3.20;;
72603;SDS011;60645;56.968;24.196;2022-07-05T02:20:49;4.72;;;3.03;;
72603;SDS011;60645;56.968;24.196;2022-07-05T02:23:15;8.15;;;3.60;;
72603;SDS011;60645;56.968;24.196;2022-07-05T02:25:45;5.60;;;2.95;;
72603;SDS011;60645;56.968;24.196;2022-07-05T02:28:11;6.00;;;2.92;;
72603;SDS011;60645;56.968;24.196;2022-07-05T02:30:38;8.18;;;3.08;;
72603;SDS011;60645;56.968;24.196;2022-07-05T02:33:04;3.58;;;3.05;;
72603;SDS011;60645;56.968;24.196;2022-07-05T02:35:31;5.05;;;3.22;;
72603;SDS011;60645;56.968;24.196;2022-07-05T02:37:57;5.05;;;2.90;;
72603;SDS011;60645;56.968;24.196;2022-07-05T02:40:23;5.25;;;2.60;;
72603;SDS011;60645;56.968;24.196;2022-07-05T02:42:50;4.57;;;2.70;;
72603;SDS011;60645;56.968;24.196;2022-07-05T02:45:16;5.50;;;3.95;;
72603;SDS011;60645;56.968;24.196;2022-07-05T02:47:43;3.28;;;2.97;;
72603;SDS011;60645;56.968;24.196;2022-07-05T02:50:09;4.50;;;2.55;;
72603;SDS011;60645;56.968;24.196;2022-07-05T02:52:36;4.72;;;2.72;;
72603;SDS011;60645;56.968;24.196;2022-07-05T02:55:03;6.07;;;2.55;;
72603;SDS011;60645;56.968;24.196;2022-07-05T02:57:29;4.63;;;2.65;;
72603;SDS011;60645;56.968;24.196;2022-07-05T02:59:56;4.35;;;2.90;;
72603;SDS011;60645;56.968;24.196;2022-07-05T03:02:23;3.00;;;2.55;;
72603;SDS011;60645;56.968;24.196;2022-07-05T03:04:49;4.38;;;2.33;;
72603;SDS011;60645;56.968;24.196;2022-07-05T03:07:16;6.30;;;3.03;;
72603;SDS011;60645;56.968;24.196;2022-07-05T03:09:42;5.40;;;2.85;;
72603;SDS011;60645;56.968;24.196;2022-07-05T03:12:09;5.72;;;2.63;;
72603;SDS011;60645;56.968;24.196;2022-07-05T03:14:35;4.57;;;2.90;;
72603;SDS011;60645;56.968;24.196;2022-07-05T03:17:02;2.45;;;2.13;;
72603;SDS011;60645;56.968;24.196;2022-07-05T03:19:28;5.15;;;2.63;;
72603;SDS011;60645;56.968;24.196;2022-07-05T03:21:55;3.83;;;2.10;;
72603;SDS011;60645;56.968;24.196;2022-07-05T03:24:21;4.57;;;2.03;;
72603;SDS011;60645;56.968;24.196;2022-07-05T03:26:47;6.22;;;2.50;;
72603;SDS011;60645;56.968;24.196;2022-07-05T03:29:14;3.95;;;2.22;;
72603;SDS011;60645;56.968;24.196;2022-07-05T03:31:40;5.85;;;2.35;;
72603;SDS011;60645;56.968;24.196;2022-07-05T03:34:07;5.50;;;2.35;;
72603;SDS011;60645;56.968;24.196;2022-07-05T03:36:33;4.85;;;2.40;;
72603;SDS011;60645;56.968;24.196;2022-07-05T03:39:00;7.93;;;2.47;;
72603;SDS011;60645;56.968;24.196;2022-07-05T03:41:26;3.55;;;2.13;;
72603;SDS011;60645;56.968;24.196;2022-07-05T03:43:53;4.28;;;2.42;;
72603;SDS011;60645;56.968;24.196;2022-07-05T03:46:19;3.35;;;2.22;;
72603;SDS011;60645;56.968;24.196;2022-07-05T03:48:46;3.20;;;2.30;;
72603;SDS011;60645;56.968;24.196;2022-07-05T03:51:12;3.42;;;2.10;;
72603;SDS011;60645;56.968;24.196;2022-07-05T03:53:40;6.78;;;2.50;;
72603;SDS011;60645;56.968;24.196;2022-07-05T03:56:06;5.80;;;2.22;;
72603;SDS011;60645;56.968;24.196;2022-07-05T03:58:33;5.75;;;1.83;;
72603;SDS011;60645;56.968;24.196;2022-07-05T04:00:59;4.57;;;2.08;;
72603;SDS011;60645;56.968;24.196;2022-07-05T04:03:26;4.70;;;1.60;;
72603;SDS011;60645;56.968;24.196;2022-07-05T04:05:52;4.68;;;1.55;;
72603;SDS011;60645;56.968;24.196;2022-07-05T04:08:19;6.68;;;1.70;;
72603;SDS011;60645;56.968;24.196;2022-07-05T04:10:45;5.00;;;1.58;;
72603;SDS011;60645;56.968;24.196;2022-07-05T04:13:11;4.57;;;1.50;;
72603;SDS011;60645;56.968;24.196;2022-07-05T04:15:38;3.47;;;1.60;;
72603;SDS011;60645;56.968;24.196;2022-07-05T04:18:04;5.03;;;1.88;;
72603;SDS011;60645;56.968;24.196;2022-07-05T04:20:31;3.85;;;2.20;;
72603;SDS011;60645;56.968;24.196;2022-07-05T04:22:57;3.67;;;1.33;;
72603;SDS011;60645;56.968;24.196;2022-07-05T04:25:24;3.85;;;1.23;;
72603;SDS011;60645;56.968;24.196;2022-07-05T04:27:51;2.58;;;1.40;;
72603;SDS011;60645;56.968;24.196;2022-07-05T04:30:21;4.68;;;1.23;;
72603;SDS011;60645;56.968;24.196;2022-07-05T04:32:48;3.10;;;1.27;;
72603;SDS011;60645;56.968;24.196;2022-07-05T04:35:14;3.85;;;1.05;;
72603;SDS011;60645;56.968;24.196;2022-07-05T04:37:41;2.67;;;0.93;;
72603;SDS011;60645;56.968;24.196;2022-07-05T04:40:08;2.42;;;1.02;;
72603;SDS011;60645;56.968;24.196;2022-07-05T04:42:35;5.68;;;1.08;;
72603;SDS011;60645;56.968;24.196;2022-07-05T04:45:01;2.88;;;1.08;;
72603;SDS011;60645;56.968;24.196;2022-07-05T04:47:28;2.88;;;0.90;;
72603;SDS011;60645;56.968;24.196;2022-07-05T04:49:55;5.68;;;0.88;;
72603;SDS011;60645;56.968;24.196;2022-07-05T04:52:23;4.13;;;2.25;;
72603;SDS011;60645;56.968;24.196;2022-07-05T04:54:50;4.10;;;1.10;;
72603;SDS011;60645;56.968;24.196;2022-07-05T04:57:17;4.95;;;1.20;;
72603;SDS011;60645;56.968;24.196;2022-07-05T04:59:43;2.42;;;0.60;;
72603;SDS011;60645;56.968;24.196;2022-07-05T05:02:10;4.72;;;0.85;;
72603;SDS011;60645;56.968;24.196;2022-07-05T05:04:37;4.68;;;1.45;;
72603;SDS011;60645;56.968;24.196;2022-07-05T05:07:03;5.20;;;0.60;;
72603;SDS011;60645;56.968;24.196;2022-07-05T05:09:29;3.47;;;0.93;;
72603;SDS011;60645;56.968;24.196;2022-07-05T05:11:56;4.38;;;0.73;;
72603;SDS011;60645;56.968;24.196;2022-07-05T05:14:23;3.92;;;0.85;;
72603;SDS011;60645;56.968;24.196;2022-07-05T05:16:49;2.20;;;0.82;;
72603;SDS011;60645;56.968;24.196;2022-07-05T05:19:16;2.25;;;0.70;;
72603;SDS011;60645;56.968;24.196;2022-07-05T05:21:42;3.42;;;0.82;;
72603;SDS011;60645;56.968;24.196;2022-07-05T05:24:08;2.60;;;0.73;;
72603;SDS011;60645;56.968;24.196;2022-07-05T05:26:35;3.03;;;0.90;;
72603;SDS011;60645;56.968;24.196;2022-07-05T05:29:01;3.20;;;0.60;;
72603;SDS011;60645;56.968;24.196;2022-07-05T05:31:28;5.65;;;0.60;;
72603;SDS011;60645;56.968;24.196;2022-07-05T05:33:54;2.20;;;0.40;;
72603;SDS011;60645;56.968;24.196;2022-07-05T05:36:20;4.18;;;0.60;;
72603;SDS011;60645;56.968;24.196;2022-07-05T05:38:47;2.50;;;0.57;;
72603;SDS011;60645;56.968;24.196;2022-07-05T05:41:16;1.67;;;0.40;;
72603;SDS011;60645;56.968;24.196;2022-07-05T05:43:42;2.78;;;0.70;;
72603;SDS011;60645;56.968;24.196;2022-07-05T05:46:09;4.18;;;0.60;;
72603;SDS011;60645;56.968;24.196;2022-07-05T05:48:35;4.75;;;0.70;;
72603;SDS011;60645;56.968;24.196;2022-07-05T05:51:02;4.03;;;0.75;;
72603;SDS011;60645;56.968;24.196;2022-07-05T05:53:29;1.52;;;0.47;;
72603;SDS011;60645;56.968;24.196;2022-07-05T05:55:55;1.33;;;0.60;;
72603;SDS011;60645;56.968;24.196;2022-07-05T05:58:22;3.10;;;0.60;;
72603;SDS011;60645;56.968;24.196;2022-07-05T06:00:50;3.97;;;0.60;;
72603;SDS011;60645;56.968;24.196;2022-07-05T06:03:19;2.67;;;0.57;;
72603;SDS011;60645;56.968;24.196;2022-07-05T06:05:45;2.33;;;0.50;;
72603;SDS011;60645;56.968;24.196;2022-07-05T06:08:12;1.98;;;0.47;;
72603;SDS011;60645;56.968;24.196;2022-07-05T06:10:39;3.88;;;0.63;;
72603;SDS011;60645;56.968;24.196;2022-07-05T06:13:12;3.22;;;0.70;;
72603;SDS011;60645;56.968;24.196;2022-07-05T06:15:39;2.88;;;0.70;;
72603;SDS011;60645;56.968;24.196;2022-07-05T06:18:06;3.13;;;0.93;;
72603;SDS011;60645;56.968;24.196;2022-07-05T06:20:34;2.88;;;0.50;;
72603;SDS011;60645;56.968;24.196;2022-07-05T06:23:01;2.45;;;0.50;;
72603;SDS011;60645;56.968;24.196;2022-07-05T06:25:28;3.30;;;0.40;;
72603;SDS011;60645;56.968;24.196;2022-07-05T06:27:56;1.70;;;0.45;;
72603;SDS011;60645;56.968;24.196;2022-07-05T06:30:23;1.70;;;0.40;;
72603;SDS011;60645;56.968;24.196;2022-07-05T06:32:50;2.42;;;0.70;;
72603;SDS011;60645;56.968;24.196;2022-07-05T06:35:16;2.15;;;0.40;;
72603;SDS011;60645;56.968;24.196;2022-07-05T06:40:10;2.67;;;0.60;;
72603;SDS011;60645;56.968;24.196;2022-07-05T06:42:43;3.80;;;0.55;;
72603;SDS011;60645;56.968;24.196;2022-07-05T06:45:09;5.05;;;0.60;;
72603;SDS011;60645;56.968;24.196;2022-07-05T06:47:35;2.00;;;0.47;;
72603;SDS011;60645;56.968;24.196;2022-07-05T06:50:02;2.58;;;1.10;;
72603;SDS011;60645;56.968;24.196;2022-07-05T06:52:30;2.15;;;0.73;;
72603;SDS011;60645;56.968;24.196;2022-07-05T06:55:00;3.47;;;0.55;;
72603;SDS011;60645;56.968;24.196;2022-07-05T06:57:27;2.70;;;0.70;;
72603;SDS011;60645;56.968;24.196;2022-07-05T06:59:55;2.47;;;0.50;;
72603;SDS011;60645;56.968;24.196;2022-07-05T07:02:24;3.15;;;0.50;;
72603;SDS011;60645;56.968;24.196;2022-07-05T07:04:51;1.77;;;0.32;;
72603;SDS011;60645;56.968;24.196;2022-07-05T07:07:34;1.10;;;0.40;;
72603;SDS011;60645;56.968;24.196;2022-07-05T07:10:19;3.03;;;0.60;;
72603;SDS011;60645;56.968;24.196;2022-07-05T07:12:53;3.50;;;0.50;;
72603;SDS011;60645;56.968;24.196;2022-07-05T07:15:20;3.90;;;0.55;;
72603;SDS011;60645;56.968;24.196;2022-07-05T07:17:46;3.08;;;0.60;;
72603;SDS011;60645;56.968;24.196;2022-07-05T07:20:12;1.35;;;0.43;;
72603;SDS011;60645;56.968;24.196;2022-07-05T07:22:39;1.85;;;0.40;;
72603;SDS011;60645;56.968;24.196;2022-07-05T07:25:05;1.17;;;0.22;;
72603;SDS011;60645;56.968;24.196;2022-07-05T07:27:44;1.13;;;0.35;;
72603;SDS011;60645;56.968;24.196;2022-07-05T07:32:37;1.33;;;0.30;;
72603;SDS011;60645;56.968;24.196;2022-07-05T07:35:03;3.03;;;0.28;;
72603;SDS011;60645;56.968;24.196;2022-07-05T07:37:30;2.78;;;0.68;;
72603;SDS011;60645;56.968;24.196;2022-07-05T07:39:56;2.20;;;0.70;;
72603;SDS011;60645;56.968;24.196;2022-07-05T07:42:23;2.78;;;0.40;;
72603;SDS011;60645;56.968;24.196;2022-07-05T07:44:49;1.92;;;0.43;;
72603;SDS011;60645;56.968;24.196;2022-07-05T07:47:15;2.55;;;0.38;;
72603;SDS011;60645;56.968;24.196;2022-07-05T07:49:42;1.40;;;0.40;;
72603;SDS011;60645;56.968;24.196;2022-07-05T07:52:12;2.33;;;0.40;;
72603;SDS011;60645;56.968;24.196;2022-07-05T07:54:39;1.17;;;0.60;;
72603;SDS011;60645;56.968;24.196;2022-07-05T07:57:05;2.72;;;0.30;;
72603;SDS011;60645;56.968;24.196;2022-07-05T07:59:32;1.23;;;0.30;;
72603;SDS011;60645;56.968;24.196;2022-07-05T08:01:58;2.42;;;0.32;;
72603;SDS011;60645;56.968;24.196;2022-07-05T08:04:25;2.63;;;0.30;;
72603;SDS011;60645;56.968;24.196;2022-07-05T08:06:51;0.57;;;0.40;;
72603;SDS011;60645;56.968;24.196;2022-07-05T08:09:18;2.30;;;0.65;;
72603;SDS011;60645;56.968;24.196;2022-07-05T08:11:45;1.75;;;0.30;;
72603;SDS011;60645;56.968;24.196;2022-07-05T08:14:13;3.20;;;0.50;;
72603;SDS011;60645;56.968;24.196;2022-07-05T08:16:39;2.47;;;0.40;;
72603;SDS011;60645;56.968;24.196;2022-07-05T08:19:11;2.15;;;0.25;;
72603;SDS011;60645;56.968;24.196;2022-07-05T08:21:56;1.80;;;0.30;;
72603;SDS011;60645;56.968;24.196;2022-07-05T08:24:22;0.93;;;0.30;;
72603;SDS011;60645;56.968;24.196;2022-07-05T08:26:49;1.55;;;0.32;;
72603;SDS011;60645;56.968;24.196;2022-07-05T08:29:15;1.35;;;0.20;;
72603;SDS011;60645;56.968;24.196;2022-07-05T08:31:49;2.40;;;0.30;;
72603;SDS011;60645;56.968;24.196;2022-07-05T08:34:16;1.98;;;0.30;;
72603;SDS011;60645;56.968;24.196;2022-07-05T08:36:44;3.08;;;0.43;;
72603;SDS011;60645;56.968;24.196;2022-07-05T08:39:11;1.58;;;0.65;;
72603;SDS011;60645;56.968;24.196;2022-07-05T08:41:38;1.00;;;0.47;;
72603;SDS011;60645;56.968;24.196;2022-07-05T08:44:05;1.27;;;0.50;;
72603;SDS011;60645;56.968;24.196;2022-07-05T08:46:32;1.95;;;0.30;;
72603;SDS011;60645;56.968;24.196;2022-07-05T08:49:00;2.30;;;0.32;;
72603;SDS011;60645;56.968;24.196;2022-07-05T08:51:40;1.58;;;0.40;;
72603;SDS011;60645;56.968;24.196;2022-07-05T08:54:10;0.82;;;0.20;;
72603;SDS011;60645;56.968;24.196;2022-07-05T08:56:41;0.85;;;0.30;;
72603;SDS011;60645;56.968;24.196;2022-07-05T08:59:28;1.70;;;0.30;;
72603;SDS011;60645;56.968;24.196;2022-07-05T09:01:55;0.90;;;0.40;;
72603;SDS011;60645;56.968;24.196;2022-07-05T09:04:22;2.05;;;0.32;;
72603;SDS011;60645;56.968;24.196;2022-07-05T09:06:50;1.77;;;0.40;;
72603;SDS011;60645;56.968;24.196;2022-07-05T09:09:17;1.10;;;0.22;;
72603;SDS011;60645;56.968;24.196;2022-07-05T09:11:45;1.35;;;0.40;;
72603;SDS011;60645;56.968;24.196;2022-07-05T09:14:33;3.28;;;0.20;;
72603;SDS011;60645;56.968;24.196;2022-07-05T09:16:59;0.77;;;0.30;;
72603;SDS011;60645;56.968;24.196;2022-07-05T09:19:25;3.00;;;0.45;;
72603;SDS011;60645;56.968;24.196;2022-07-05T09:22:04;1.48;;;0.30;;
72603;SDS011;60645;56.968;24.196;2022-07-05T09:24:31;2.75;;;0.40;;
72603;SDS011;60645;56.968;24.196;2022-07-05T09:27:01;2.00;;;0.25;;
72603;SDS011;60645;56.968;24.196;2022-07-05T09:29:28;0.90;;;0.30;;
72603;SDS011;60645;56.968;24.196;2022-07-05T09:32:22;2.13;;;0.77;;
72603;SDS011;60645;56.968;24.196;2022-07-05T09:34:48;1.52;;;0.35;;
72603;SDS011;60645;56.968;24.196;2022-07-05T09:37:14;1.52;;;0.20;;
72603;SDS011;60645;56.968;24.196;2022-07-05T09:39:41;1.98;;;0.20;;
72603;SDS011;60645;56.968;24.196;2022-07-05T09:42:22;2.08;;;0.55;;
72603;SDS011;60645;56.968;24.196;2022-07-05T09:44:50;1.90;;;0.50;;
72603;SDS011;60645;56.968;24.196;2022-07-05T09:47:18;1.75;;;0.30;;
72603;SDS011;60645;56.968;24.196;2022-07-05T09:49:46;2.55;;;0.43;;
72603;SDS011;60645;56.968;24.196;2022-07-05T09:55:03;1.60;;;0.28;;
72603;SDS011;60645;56.968;24.196;2022-07-05T09:57:30;1.50;;;0.40;;
72603;SDS011;60645;56.968;24.196;2022-07-05T10:00:04;1.65;;;0.20;;
72603;SDS011;60645;56.968;24.196;2022-07-05T10:03:13;2.15;;;0.70;;
72603;SDS011;60645;56.968;24.196;2022-07-05T10:05:25;1.65;;;0.45;;
72603;SDS011;60645;56.968;24.196;2022-07-05T10:07:55;2.05;;;0.30;;
72603;SDS011;60645;56.968;24.196;2022-07-05T10:12:49;1.05;;;0.30;;
72603;SDS011;60645;56.968;24.196;2022-07-05T10:15:16;1.48;;;0.25;;
72603;SDS011;60645;56.968;24.196;2022-07-05T10:17:53;1.65;;;0.25;;
72603;SDS011;60645;56.968;24.196;2022-07-05T10:22:56;2.15;;;0.30;;
72603;SDS011;60645;56.968;24.196;2022-07-05T10:25:31;2.30;;;0.30;;
72603;SDS011;60645;56.968;24.196;2022-07-05T10:27:58;2.25;;;0.30;;
72603;SDS011;60645;56.968;24.196;2022-07-05T10:30:25;1.75;;;0.40;;
72603;SDS011;60645;56.968;24.196;2022-07-05T10:32:51;1.27;;;0.32;;
72603;SDS011;60645;56.968;24.196;2022-07-05T10:35:18;3.25;;;0.50;;
72603;SDS011;60645;56.968;24.196;2022-07-05T10:37:49;2.75;;;0.30;;
72603;SDS011;60645;56.968;24.196;2022-07-05T10:40:16;1.00;;;0.30;;
72603;SDS011;60645;56.968;24.196;2022-07-05T10:42:52;0.88;;;0.30;;
72603;SDS011;60645;56.968;24.196;2022-07-05T10:45:33;1.63;;;0.30;;
72603;SDS011;60645;56.968;24.196;2022-07-05T10:51:18;2.13;;;1.02;;
72603;SDS011;60645;56.968;24.196;2022-07-05T10:53:27;2.58;;;0.40;;
72603;SDS011;60645;56.968;24.196;2022-07-05T10:58:35;0.80;;;0.30;;
72603;SDS011;60645;56.968;24.196;2022-07-05T11:03:41;2.03;;;0.32;;
72603;SDS011;60645;56.968;24.196;2022-07-05T11:06:12;1.25;;;0.40;;
72603;SDS011;60645;56.968;24.196;2022-07-05T11:11:27;2.00;;;0.20;;
72603;SDS011;60645;56.968;24.196;2022-07-05T11:13:54;0.82;;;0.30;;
72603;SDS011;60645;56.968;24.196;2022-07-05T11:16:21;1.67;;;0.25;;
72603;SDS011;60645;56.968;24.196;2022-07-05T11:18:49;1.42;;;0.30;;
72603;SDS011;60645;56.968;24.196;2022-07-05T11:21:16;1.30;;;0.25;;
72603;SDS011;60645;56.968;24.196;2022-07-05T11:23:43;2.00;;;0.40;;
72603;SDS011;60645;56.968;24.196;2022-07-05T11:26:11;1.23;;;0.30;;
72603;SDS011;60645;56.968;24.196;2022-07-05T11:28:44;0.60;;;0.20;;
72603;SDS011;60645;56.968;24.196;2022-07-05T11:31:11;1.98;;;0.30;;
72603;SDS011;60645;56.968;24.196;2022-07-05T11:33:40;1.23;;;0.30;;
72603;SDS011;60645;56.968;24.196;2022-07-05T11:36:24;1.85;;;0.40;;
72603;SDS011;60645;56.968;24.196;2022-07-05T11:39:36;4.55;;;1.05;;
72603;SDS011;60645;56.968;24.196;2022-07-05T11:41:48;1.00;;;0.25;;
72603;SDS011;60645;56.968;24.196;2022-07-05T11:44:15;1.15;;;0.22;;
72603;SDS011;60645;56.968;24.196;2022-07-05T11:46:43;1.02;;;0.55;;
72603;SDS011;60645;56.968;24.196;2022-07-05T11:49:18;1.83;;;0.30;;
72603;SDS011;60645;56.968;24.196;2022-07-05T11:51:52;1.85;;;0.40;;
72603;SDS011;60645;56.968;24.196;2022-07-05T11:54:22;2.33;;;0.40;;
72603;SDS011;60645;56.968;24.196;2022-07-05T11:56:48;2.53;;;0.40;;
72603;SDS011;60645;56.968;24.196;2022-07-05T11:59:17;2.13;;;0.30;;
72603;SDS011;60645;56.968;24.196;2022-07-05T12:01:44;1.30;;;0.32;;
72603;SDS011;60645;56.968;24.196;2022-07-05T12:04:10;1.83;;;0.38;;
72603;SDS011;60645;56.968;24.196;2022-07-05T12:06:41;1.58;;;0.30;;
72603;SDS011;60645;56.968;24.196;2022-07-05T12:09:08;0.82;;;0.32;;
72603;SDS011;60645;56.968;24.196;2022-07-05T12:11:34;1.13;;;0.43;;
72603;SDS011;60645;56.968;24.196;2022-07-05T12:14:22;1.70;;;0.32;;
72603;SDS011;60645;56.968;24.196;2022-07-05T12:16:49;1.63;;;0.30;;
72603;SDS011;60645;56.968;24.196;2022-07-05T12:19:25;4.80;;;0.30;;
72603;SDS011;60645;56.968;24.196;2022-07-05T12:21:53;1.90;;;0.47;;
72603;SDS011;60645;56.968;24.196;2022-07-05T12:24:20;2.75;;;0.43;;
72603;SDS011;60645;56.968;24.196;2022-07-05T12:26:47;1.35;;;0.40;;
72603;SDS011;60645;56.968;24.196;2022-07-05T12:29:13;1.85;;;0.32;;
72603;SDS011;60645;56.968;24.196;2022-07-05T12:31:57;1.30;;;0.40;;
72603;SDS011;60645;56.968;24.196;2022-07-05T12:34:24;1.55;;;0.30;;
72603;SDS011;60645;56.968;24.196;2022-07-05T12:36:51;1.02;;;0.30;;
72603;SDS011;60645;56.968;24.196;2022-07-05T12:39:17;1.27;;;0.30;;
72603;SDS011;60645;56.968;24.196;2022-07-05T12:41:43;1.27;;;0.20;;
72603;SDS011;60645;56.968;24.196;2022-07-05T12:44:10;3.15;;;0.95;;
72603;SDS011;60645;56.968;24.196;2022-07-05T12:46:37;3.08;;;1.00;;
72603;SDS011;60645;56.968;24.196;2022-07-05T13:00:33;2.17;;;1.38;;
72603;SDS011;60645;56.968;24.196;2022-07-05T13:03:00;4.38;;;1.30;;
72603;SDS011;60645;56.968;24.196;2022-07-05T13:05:27;1.73;;;1.30;;
72603;SDS011;60645;56.968;24.196;2022-07-05T13:07:54;5.40;;;1.58;;
72603;SDS011;60645;56.968;24.196;2022-07-05T13:10:25;3.33;;;1.30;;
72603;SDS011;60645;56.968;24.196;2022-07-05T13:12:54;4.03;;;1.52;;
72603;SDS011;60645;56.968;24.196;2022-07-05T13:15:21;2.33;;;1.27;;
72603;SDS011;60645;56.968;24.196;2022-07-05T13:17:48;3.50;;;1.33;;
72603;SDS011;60645;56.968;24.196;2022-07-05T13:20:17;3.42;;;1.08;;
72603;SDS011;60645;56.968;24.196;2022-07-05T13:22:46;2.45;;;1.27;;
72603;SDS011;60645;56.968;24.196;2022-07-05T13:25:13;2.75;;;0.90;;
72603;SDS011;60645;56.968;24.196;2022-07-05T13:27:41;3.10;;;1.10;;
72603;SDS011;60645;56.968;24.196;2022-07-05T13:30:08;4.53;;;1.70;;
72603;SDS011;60645;56.968;24.196;2022-07-05T13:32:35;2.97;;;1.35;;
72603;SDS011;60645;56.968;24.196;2022-07-05T13:35:02;5.03;;;1.83;;
72603;SDS011;60645;56.968;24.196;2022-07-05T13:37:29;4.32;;;1.55;;
72603;SDS011;60645;56.968;24.196;2022-07-05T13:39:56;3.72;;;1.17;;
72603;SDS011;60645;56.968;24.196;2022-07-05T13:42:23;3.58;;;1.20;;
72603;SDS011;60645;56.968;24.196;2022-07-05T13:44:50;2.60;;;0.77;;
72603;SDS011;60645;56.968;24.196;2022-07-05T13:47:17;2.25;;;2.05;;
72603;SDS011;60645;56.968;24.196;2022-07-05T13:49:43;4.43;;;1.58;;
72603;SDS011;60645;56.968;24.196;2022-07-05T13:52:10;1.73;;;1.15;;
72603;SDS011;60645;56.968;24.196;2022-07-05T13:54:37;2.13;;;1.60;;
72603;SDS011;60645;56.968;24.196;2022-07-05T13:57:04;3.40;;;1.60;;
72603;SDS011;60645;56.968;24.196;2022-07-05T13:59:31;2.25;;;1.65;;
72603;SDS011;60645;56.968;24.196;2022-07-05T14:01:59;1.83;;;1.55;;
72603;SDS011;60645;56.968;24.196;2022-07-05T14:04:26;4.97;;;0.70;;
72603;SDS011;60645;56.968;24.196;2022-07-05T14:06:56;4.68;;;2.20;;
72603;SDS011;60645;56.968;24.196;2022-07-05T14:09:23;2.90;;;2.05;;
72603;SDS011;60645;56.968;24.196;2022-07-05T14:11:54;2.53;;;1.63;;
72603;SDS011;60645;56.968;24.196;2022-07-05T14:14:22;4.82;;;1.50;;
72603;SDS011;60645;56.968;24.196;2022-07-05T14:16:48;2.70;;;1.38;;
72603;SDS011;60645;56.968;24.196;2022-07-05T14:19:15;1.35;;;1.08;;
72603;SDS011;60645;56.968;24.196;2022-07-05T14:21:42;2.95;;;1.00;;
72603;SDS011;60645;56.968;24.196;2022-07-05T14:24:13;3.65;;;1.77;;
72603;SDS011;60645;56.968;24.196;2022-07-05T14:26:39;4.50;;;1.65;;
72603;SDS011;60645;56.968;24.196;2022-07-05T14:29:07;2.25;;;1.38;;
72603;SDS011;60645;56.968;24.196;2022-07-05T14:31:34;3.65;;;1.15;;
72603;SDS011;60645;56.968;24.196;2022-07-05T14:34:01;4.63;;;1.23;;
72603;SDS011;60645;56.968;24.196;2022-07-05T14:36:28;3.10;;;1.48;;
72603;SDS011;60645;56.968;24.196;2022-07-05T14:38:55;3.42;;;1.40;;
72603;SDS011;60645;56.968;24.196;2022-07-05T14:41:22;3.63;;;1.33;;
72603;SDS011;60645;56.968;24.196;2022-07-05T14:43:48;2.47;;;1.52;;
72603;SDS011;60645;56.968;24.196;2022-07-05T14:46:15;3.75;;;1.23;;
72603;SDS011;60645;56.968;24.196;2022-07-05T14:48:46;5.78;;;1.50;;
72603;SDS011;60645;56.968;24.196;2022-07-05T14:51:13;2.33;;;1.42;;
72603;SDS011;60645;56.968;24.196;2022-07-05T14:53:40;2.40;;;1.73;;
72603;SDS011;60645;56.968;24.196;2022-07-05T14:56:08;2.75;;;1.38;;
72603;SDS011;60645;56.968;24.196;2022-07-05T14:58:35;2.92;;;1.30;;
72603;SDS011;60645;56.968;24.196;2022-07-05T15:01:02;4.45;;;2.22;;
72603;SDS011;60645;56.968;24.196;2022-07-05T15:03:29;2.35;;;2.15;;
72603;SDS011;60645;56.968;24.196;2022-07-05T15:05:56;5.47;;;0.60;;
72603;SDS011;60645;56.968;24.196;2022-07-05T15:08:22;4.05;;;1.45;;
72603;SDS011;60645;56.968;24.196;2022-07-05T15:10:51;2.05;;;0.55;;
72603;SDS011;60645;56.968;24.196;2022-07-05T15:13:18;1.88;;;1.70;;